sensor_id;sensor_type;location;lat;lon;timestamp;temperature;humidity
35603;DHT22;21725;50.836;4.368;2022-07-23T00:02:22;19.50;99.90
35603;DHT22;21725;50.836;4.368;2022-07-23T00:04:47;19.40;99.90
35603;DHT22;21725;50.836;4.368;2022-07-23T00:07:13;19.50;99.90
35603;DHT22;21725;50.836;4.368;2022-07-23T00:09:39;19.80;99.90
35603;DHT22;21725;50.836;4.368;2022-07-23T00:12:15;19.60;99.90
35603;DHT22;21725;50.836;4.368;2022-07-23T00:14:40;19.50;99.90
35603;DHT22;21725;50.836;4.368;2022-07-23T00:17:07;19.30;99.90
35603;DHT22;21725;50.836;4.368;2022-07-23T00:19:50;19.40;99.90
35603;DHT22;21725;50.836;4.368;2022-07-23T00:22:16;19.30;99.90
35603;DHT22;21725;50.836;4.368;2022-07-23T00:24:45;19.30;99.90
35603;DHT22;21725;50.836;4.368;2022-07-23T00:27:11;19.30;99.90
35603;DHT22;21725;50.836;4.368;2022-07-23T00:29:36;19.30;99.90
35603;DHT22;21725;50.836;4.368;2022-07-23T00:32:02;19.30;99.90
35603;DHT22;21725;50.836;4.368;2022-07-23T00:34:31;19.50;99.90
35603;DHT22;21725;50.836;4.368;2022-07-23T00:36:56;19.10;99.90
35603;DHT22;21725;50.836;4.368;2022-07-23T00:39:22;19.20;99.90
35603;DHT22;21725;50.836;4.368;2022-07-23T00:41:51;19.10;99.90
35603;DHT22;21725;50.836;4.368;2022-07-23T00:44:25;19.10;99.90
35603;DHT22;21725;50.836;4.368;2022-07-23T00:46:57;19.20;99.90
35603;DHT22;21725;50.836;4.368;2022-07-23T00:49:30;19.10;99.90
35603;DHT22;21725;50.836;4.368;2022-07-23T00:51:57;19.10;99.90
35603;DHT22;21725;50.836;4.368;2022-07-23T00:54:26;19.20;99.90
35603;DHT22;21725;50.836;4.368;2022-07-23T00:56:53;19.10;99.90
35603;DHT22;21725;50.836;4.368;2022-07-23T00:59:18;19.10;99.90
35603;DHT22;21725;50.836;4.368;2022-07-23T01:01:55;19.20;99.90
35603;DHT22;21725;50.836;4.368;2022-07-23T01:04:21;19.10;99.90
35603;DHT22;21725;50.836;4.368;2022-07-23T01:06:47;19.10;99.90
35603;DHT22;21725;50.836;4.368;2022-07-23T01:09:19;19.00;99.90
35603;DHT22;21725;50.836;4.368;2022-07-23T01:11:51;19.10;99.90
35603;DHT22;21725;50.836;4.368;2022-07-23T01:14:22;19.10;99.90
35603;DHT22;21725;50.836;4.368;2022-07-23T01:17:11;19.10;99.90
35603;DHT22;21725;50.836;4.368;2022-07-23T01:19:38;19.10;99.90
35603;DHT22;21725;50.836;4.368;2022-07-23T01:22:04;18.90;99.90
35603;DHT22;21725;50.836;4.368;2022-07-23T01:24:31;18.90;99.90
35603;DHT22;21725;50.836;4.368;2022-07-23T01:26:56;18.80;99.90
35603;DHT22;21725;50.836;4.368;2022-07-23T01:29:23;18.90;99.90
35603;DHT22;21725;50.836;4.368;2022-07-23T01:31:49;18.90;99.90
35603;DHT22;21725;50.836;4.368;2022-07-23T01:34:16;18.90;99.90
35603;DHT22;21725;50.836;4.368;2022-07-23T01:36:43;18.80;99.90
35603;DHT22;21725;50.836;4.368;2022-07-23T01:39:10;18.80;99.90
35603;DHT22;21725;50.836;4.368;2022-07-23T01:41:39;18.70;99.90
35603;DHT22;21725;50.836;4.368;2022-07-23T01:44:08;18.70;99.90
35603;DHT22;21725;50.836;4.368;2022-07-23T01:46:34;18.80;99.90
35603;DHT22;21725;50.836;4.368;2022-07-23T01:49:00;18.80;99.90
35603;DHT22;21725;50.836;4.368;2022-07-23T01:51:26;18.80;99.90
35603;DHT22;21725;50.836;4.368;2022-07-23T01:53:55;18.80;99.90
35603;DHT22;21725;50.836;4.368;2022-07-23T01:56:22;18.90;99.90
35603;DHT22;21725;50.836;4.368;2022-07-23T01:58:50;18.90;99.90
35603;DHT22;21725;50.836;4.368;2022-07-23T02:01:16;18.60;99.90
35603;DHT22;21725;50.836;4.368;2022-07-23T02:03:52;18.70;99.90
35603;DHT22;21725;50.836;4.368;2022-07-23T02:06:24;18.70;99.90
35603;DHT22;21725;50.836;4.368;2022-07-23T02:08:50;18.70;99.90
35603;DHT22;21725;50.836;4.368;2022-07-23T02:11:16;18.90;99.90
35603;DHT22;21725;50.836;4.368;2022-07-23T02:13:42;19.10;99.90
35603;DHT22;21725;50.836;4.368;2022-07-23T02:16:08;19.10;99.90
35603;DHT22;21725;50.836;4.368;2022-07-23T02:18:38;18.90;99.90
35603;DHT22;21725;50.836;4.368;2022-07-23T02:21:04;18.80;99.90
35603;DHT22;21725;50.836;4.368;2022-07-23T02:23:30;18.80;99.90
35603;DHT22;21725;50.836;4.368;2022-07-23T02:25:55;18.90;99.90
35603;DHT22;21725;50.836;4.368;2022-07-23T02:28:21;18.90;99.90
35603;DHT22;21725;50.836;4.368;2022-07-23T02:30:56;18.90;99.90
35603;DHT22;21725;50.836;4.368;2022-07-23T02:33:22;18.90;99.90
35603;DHT22;21725;50.836;4.368;2022-07-23T02:36:02;19.00;99.90
35603;DHT22;21725;50.836;4.368;2022-07-23T02:38:28;19.00;99.90
35603;DHT22;21725;50.836;4.368;2022-07-23T02:40:55;19.10;99.90
35603;DHT22;21725;50.836;4.368;2022-07-23T02:43:20;19.10;99.90
35603;DHT22;21725;50.836;4.368;2022-07-23T02:45:59;19.30;99.90
35603;DHT22;21725;50.836;4.368;2022-07-23T02:48:26;19.30;99.90
35603;DHT22;21725;50.836;4.368;2022-07-23T02:51:02;19.30;99.90
35603;DHT22;21725;50.836;4.368;2022-07-23T02:53:28;19.40;99.90
35603;DHT22;21725;50.836;4.368;2022-07-23T02:55:54;19.40;99.90
35603;DHT22;21725;50.836;4.368;2022-07-23T02:58:22;19.40;99.90
35603;DHT22;21725;50.836;4.368;2022-07-23T03:00:50;19.50;99.90
35603;DHT22;21725;50.836;4.368;2022-07-23T03:03:23;19.50;99.90
35603;DHT22;21725;50.836;4.368;2022-07-23T03:05:52;19.40;99.90
35603;DHT22;21725;50.836;4.368;2022-07-23T03:08:20;19.40;99.90
35603;DHT22;21725;50.836;4.368;2022-07-23T03:10:55;19.40;99.90
35603;DHT22;21725;50.836;4.368;2022-07-23T03:13:21;19.50;99.90
35603;DHT22;21725;50.836;4.368;2022-07-23T03:15:48;19.50;99.90
35603;DHT22;21725;50.836;4.368;2022-07-23T03:18:25;19.40;99.90
35603;DHT22;21725;50.836;4.368;2022-07-23T03:20:50;19.40;99.90
35603;DHT22;21725;50.836;4.368;2022-07-23T03:23:19;19.40;99.90
35603;DHT22;21725;50.836;4.368;2022-07-23T03:25:44;19.30;99.90
35603;DHT22;21725;50.836;4.368;2022-07-23T03:28:15;19.30;99.90
35603;DHT22;21725;50.836;4.368;2022-07-23T03:30:47;19.20;99.90
35603;DHT22;21725;50.836;4.368;2022-07-23T03:33:14;19.10;99.90
35603;DHT22;21725;50.836;4.368;2022-07-23T03:35:40;19.10;99.90
35603;DHT22;21725;50.836;4.368;2022-07-23T03:38:05;19.10;99.90
35603;DHT22;21725;50.836;4.368;2022-07-23T03:40:31;19.10;99.90
35603;DHT22;21725;50.836;4.368;2022-07-23T03:42:57;18.90;99.90
35603;DHT22;21725;50.836;4.368;2022-07-23T03:45:23;18.80;99.90
35603;DHT22;21725;50.836;4.368;2022-07-23T03:47:48;18.80;99.90
35603;DHT22;21725;50.836;4.368;2022-07-23T03:50:14;18.90;99.90
35603;DHT22;21725;50.836;4.368;2022-07-23T03:52:40;18.90;99.90
35603;DHT22;21725;50.836;4.368;2022-07-23T03:55:06;18.90;99.90
35603;DHT22;21725;50.836;4.368;2022-07-23T03:57:32;18.90;99.90
35603;DHT22;21725;50.836;4.368;2022-07-23T03:59:58;18.90;99.90
35603;DHT22;21725;50.836;4.368;2022-07-23T04:02:24;18.90;99.90
35603;DHT22;21725;50.836;4.368;2022-07-23T04:04:50;19.00;99.90
35603;DHT22;21725;50.836;4.368;2022-07-23T04:29:55;16.40;99.90
35603;DHT22;21725;50.836;4.368;2022-07-23T04:32:21;16.20;99.90
35603;DHT22;21725;50.836;4.368;2022-07-23T04:34:47;16.40;99.90
35603;DHT22;21725;50.836;4.368;2022-07-23T04:37:21;16.80;99.90
35603;DHT22;21725;50.836;4.368;2022-07-23T04:39:47;17.10;99.90
35603;DHT22;21725;50.836;4.368;2022-07-23T04:42:12;17.50;99.90
35603;DHT22;21725;50.836;4.368;2022-07-23T04:44:45;18.00;99.90
35603;DHT22;21725;50.836;4.368;2022-07-23T04:47:11;18.20;99.90
35603;DHT22;21725;50.836;4.368;2022-07-23T04:49:44;18.30;99.90
35603;DHT22;21725;50.836;4.368;2022-07-23T04:52:11;18.30;99.90
35603;DHT22;21725;50.836;4.368;2022-07-23T04:54:48;18.30;99.90
35603;DHT22;21725;50.836;4.368;2022-07-23T04:57:20;18.50;99.90
35603;DHT22;21725;50.836;4.368;2022-07-23T04:59:45;18.70;99.90
35603;DHT22;21725;50.836;4.368;2022-07-23T05:02:13;18.80;99.90
35603;DHT22;21725;50.836;4.368;2022-07-23T05:04:38;19.10;99.90
35603;DHT22;21725;50.836;4.368;2022-07-23T05:07:07;19.30;99.90
35603;DHT22;21725;50.836;4.368;2022-07-23T05:09:33;19.60;99.90
35603;DHT22;21725;50.836;4.368;2022-07-23T05:12:01;19.80;99.90
35603;DHT22;21725;50.836;4.368;2022-07-23T05:14:26;20.00;99.90
35603;DHT22;21725;50.836;4.368;2022-07-23T05:17:01;20.20;99.90
35603;DHT22;21725;50.836;4.368;2022-07-23T05:19:26;20.20;99.90
35603;DHT22;21725;50.836;4.368;2022-07-23T05:21:52;20.20;99.90
35603;DHT22;21725;50.836;4.368;2022-07-23T05:24:22;20.10;99.90
35603;DHT22;21725;50.836;4.368;2022-07-23T05:26:57;20.20;99.90
35603;DHT22;21725;50.836;4.368;2022-07-23T05:29:26;20.30;99.90
35603;DHT22;21725;50.836;4.368;2022-07-23T05:31:53;20.20;99.90
35603;DHT22;21725;50.836;4.368;2022-07-23T05:34:26;20.30;99.90
35603;DHT22;21725;50.836;4.368;2022-07-23T05:36:51;20.30;99.90
35603;DHT22;21725;50.836;4.368;2022-07-23T05:39:20;20.30;99.90
35603;DHT22;21725;50.836;4.368;2022-07-23T05:41:49;20.20;99.90
35603;DHT22;21725;50.836;4.368;2022-07-23T05:44:15;20.10;99.90
35603;DHT22;21725;50.836;4.368;2022-07-23T05:46:45;20.20;99.90
35603;DHT22;21725;50.836;4.368;2022-07-23T05:49:18;20.30;99.90
35603;DHT22;21725;50.836;4.368;2022-07-23T05:51:44;20.30;99.90
35603;DHT22;21725;50.836;4.368;2022-07-23T05:54:10;20.30;99.90
35603;DHT22;21725;50.836;4.368;2022-07-23T05:56:36;20.20;99.90
35603;DHT22;21725;50.836;4.368;2022-07-23T05:59:03;20.20;99.90
35603;DHT22;21725;50.836;4.368;2022-07-23T06:01:28;20.30;99.90
35603;DHT22;21725;50.836;4.368;2022-07-23T06:03:54;20.50;99.90
35603;DHT22;21725;50.836;4.368;2022-07-23T06:06:20;20.70;99.90
35603;DHT22;21725;50.836;4.368;2022-07-23T06:08:52;20.70;99.90
35603;DHT22;21725;50.836;4.368;2022-07-23T06:11:18;20.80;99.90
35603;DHT22;21725;50.836;4.368;2022-07-23T06:13:43;20.70;99.90
35603;DHT22;21725;50.836;4.368;2022-07-23T06:16:09;20.60;99.90
35603;DHT22;21725;50.836;4.368;2022-07-23T06:18:39;20.80;99.90
35603;DHT22;21725;50.836;4.368;2022-07-23T06:21:05;20.90;99.90
35603;DHT22;21725;50.836;4.368;2022-07-23T06:23:31;21.10;99.90
35603;DHT22;21725;50.836;4.368;2022-07-23T06:25:58;21.20;99.90
35603;DHT22;21725;50.836;4.368;2022-07-23T06:28:24;21.30;99.90
35603;DHT22;21725;50.836;4.368;2022-07-23T06:30:54;21.60;99.90
35603;DHT22;21725;50.836;4.368;2022-07-23T06:33:20;22.30;99.60
35603;DHT22;21725;50.836;4.368;2022-07-23T06:35:50;23.30;97.60
35603;DHT22;21725;50.836;4.368;2022-07-23T06:38:25;24.00;95.20
35603;DHT22;21725;50.836;4.368;2022-07-23T06:40:51;24.20;94.40
35603;DHT22;21725;50.836;4.368;2022-07-23T06:43:22;23.90;94.40
35603;DHT22;21725;50.836;4.368;2022-07-23T06:45:52;23.80;94.10
35603;DHT22;21725;50.836;4.368;2022-07-23T06:48:18;23.60;94.50
35603;DHT22;21725;50.836;4.368;2022-07-23T06:50:50;23.60;94.90
35603;DHT22;21725;50.836;4.368;2022-07-23T06:53:27;24.40;93.90
35603;DHT22;21725;50.836;4.368;2022-07-23T06:55:53;24.90;93.30
35603;DHT22;21725;50.836;4.368;2022-07-23T06:58:20;25.20;92.50
35603;DHT22;21725;50.836;4.368;2022-07-23T07:00:50;25.80;91.40
35603;DHT22;21725;50.836;4.368;2022-07-23T07:03:17;26.20;90.30
35603;DHT22;21725;50.836;4.368;2022-07-23T07:05:45;26.20;90.40
35603;DHT22;21725;50.836;4.368;2022-07-23T07:08:14;26.40;90.10
35603;DHT22;21725;50.836;4.368;2022-07-23T07:10:42;26.40;89.40
35603;DHT22;21725;50.836;4.368;2022-07-23T07:13:20;26.60;89.60
35603;DHT22;21725;50.836;4.368;2022-07-23T07:15:52;26.90;89.10
35603;DHT22;21725;50.836;4.368;2022-07-23T07:18:17;27.60;87.10
35603;DHT22;21725;50.836;4.368;2022-07-23T07:20:44;28.20;85.70
35603;DHT22;21725;50.836;4.368;2022-07-23T07:26:09;29.20;82.90
35603;DHT22;21725;50.836;4.368;2022-07-23T07:28:35;29.60;81.30
35603;DHT22;21725;50.836;4.368;2022-07-23T07:31:01;29.70;81.40
35603;DHT22;21725;50.836;4.368;2022-07-23T07:33:26;30.00;80.30
35603;DHT22;21725;50.836;4.368;2022-07-23T07:35:58;30.00;80.00
35603;DHT22;21725;50.836;4.368;2022-07-23T07:38:26;30.40;79.60
35603;DHT22;21725;50.836;4.368;2022-07-23T07:40:52;30.40;79.00
35603;DHT22;21725;50.836;4.368;2022-07-23T07:43:25;30.80;78.10
35603;DHT22;21725;50.836;4.368;2022-07-23T07:45:51;31.00;77.40
35603;DHT22;21725;50.836;4.368;2022-07-23T07:48:16;30.80;76.80
35603;DHT22;21725;50.836;4.368;2022-07-23T07:50:42;30.30;77.80
35603;DHT22;21725;50.836;4.368;2022-07-23T07:53:08;30.40;77.30
35603;DHT22;21725;50.836;4.368;2022-07-23T07:55:34;30.90;76.90
35603;DHT22;21725;50.836;4.368;2022-07-23T07:58:00;31.40;75.50
35603;DHT22;21725;50.836;4.368;2022-07-23T08:00:26;31.00;75.30
35603;DHT22;21725;50.836;4.368;2022-07-23T08:02:54;30.40;76.30
35603;DHT22;21725;50.836;4.368;2022-07-23T08:05:24;30.20;76.80
35603;DHT22;21725;50.836;4.368;2022-07-23T08:07:50;30.80;76.30
35603;DHT22;21725;50.836;4.368;2022-07-23T08:10:19;31.40;75.80
35603;DHT22;21725;50.836;4.368;2022-07-23T08:12:48;31.30;75.30
35603;DHT22;21725;50.836;4.368;2022-07-23T08:15:16;31.50;74.40
35603;DHT22;21725;50.836;4.368;2022-07-23T08:17:50;31.20;74.80
35603;DHT22;21725;50.836;4.368;2022-07-23T08:20:21;31.40;74.40
35603;DHT22;21725;50.836;4.368;2022-07-23T08:22:56;31.60;73.80
35603;DHT22;21725;50.836;4.368;2022-07-23T08:25:27;31.20;74.60
35603;DHT22;21725;50.836;4.368;2022-07-23T08:27:54;30.80;74.60
35603;DHT22;21725;50.836;4.368;2022-07-23T08:30:32;30.10;75.80
35603;DHT22;21725;50.836;4.368;2022-07-23T08:33:15;29.70;76.30
35603;DHT22;21725;50.836;4.368;2022-07-23T08:35:51;29.40;76.30
35603;DHT22;21725;50.836;4.368;2022-07-23T08:38:20;29.00;77.40
35603;DHT22;21725;50.836;4.368;2022-07-23T08:41:10;28.50;78.40
35603;DHT22;21725;50.836;4.368;2022-07-23T08:43:36;28.30;78.50
35603;DHT22;21725;50.836;4.368;2022-07-23T08:46:02;27.90;79.40
35603;DHT22;21725;50.836;4.368;2022-07-23T08:48:31;27.80;79.60
35603;DHT22;21725;50.836;4.368;2022-07-23T08:51:07;27.40;80.80
35603;DHT22;21725;50.836;4.368;2022-07-23T08:53:51;27.10;80.20
35603;DHT22;21725;50.836;4.368;2022-07-23T08:56:17;26.70;81.10
35603;DHT22;21725;50.836;4.368;2022-07-23T08:58:44;26.30;82.10
35603;DHT22;21725;50.836;4.368;2022-07-23T09:01:10;26.20;82.60
35603;DHT22;21725;50.836;4.368;2022-07-23T09:03:45;26.20;82.40
35603;DHT22;21725;50.836;4.368;2022-07-23T09:06:14;26.20;82.60
35603;DHT22;21725;50.836;4.368;2022-07-23T09:08:43;26.00;83.00
35603;DHT22;21725;50.836;4.368;2022-07-23T09:11:21;25.70;81.50
35603;DHT22;21725;50.836;4.368;2022-07-23T09:13:54;25.90;80.90
35603;DHT22;21725;50.836;4.368;2022-07-23T09:16:24;26.00;80.90
35603;DHT22;21725;50.836;4.368;2022-07-23T09:21:31;26.20;82.30
35603;DHT22;21725;50.836;4.368;2022-07-23T09:26:52;26.30;81.70
35603;DHT22;21725;50.836;4.368;2022-07-23T09:29:26;26.30;81.70
35603;DHT22;21725;50.836;4.368;2022-07-23T09:31:57;26.40;82.00
35603;DHT22;21725;50.836;4.368;2022-07-23T09:37:26;26.20;81.90
35603;DHT22;21725;50.836;4.368;2022-07-23T09:39:46;26.30;81.40
35603;DHT22;21725;50.836;4.368;2022-07-23T09:42:19;26.30;81.50
35603;DHT22;21725;50.836;4.368;2022-07-23T09:44:50;26.20;81.00
35603;DHT22;21725;50.836;4.368;2022-07-23T09:47:25;25.90;81.70
35603;DHT22;21725;50.836;4.368;2022-07-23T09:50:17;25.90;81.30
35603;DHT22;21725;50.836;4.368;2022-07-23T09:52:48;25.90;81.80
35603;DHT22;21725;50.836;4.368;2022-07-23T09:55:31;25.80;81.80
35603;DHT22;21725;50.836;4.368;2022-07-23T09:58:06;25.90;80.30
35603;DHT22;21725;50.836;4.368;2022-07-23T10:00:38;26.00;80.40
35603;DHT22;21725;50.836;4.368;2022-07-23T10:03:18;25.80;80.70
35603;DHT22;21725;50.836;4.368;2022-07-23T10:29:35;24.30;85.80
35603;DHT22;21725;50.836;4.368;2022-07-23T10:35:20;24.30;86.40
35603;DHT22;21725;50.836;4.368;2022-07-23T10:37:57;24.90;85.00
35603;DHT22;21725;50.836;4.368;2022-07-23T10:40:33;25.40;83.20
35603;DHT22;21725;50.836;4.368;2022-07-23T10:43:15;26.00;81.90
35603;DHT22;21725;50.836;4.368;2022-07-23T10:45:42;26.50;80.80
35603;DHT22;21725;50.836;4.368;2022-07-23T10:48:27;27.00;79.60
35603;DHT22;21725;50.836;4.368;2022-07-23T10:51:31;27.20;79.20
35603;DHT22;21725;50.836;4.368;2022-07-23T10:53:58;27.30;77.60
35603;DHT22;21725;50.836;4.368;2022-07-23T10:59:21;26.80;78.80
35603;DHT22;21725;50.836;4.368;2022-07-23T11:01:52;26.60;79.60
35603;DHT22;21725;50.836;4.368;2022-07-23T11:05:23;26.70;79.40
35603;DHT22;21725;50.836;4.368;2022-07-23T11:07:33;26.50;79.80
35603;DHT22;21725;50.836;4.368;2022-07-23T11:09:59;26.60;79.90
35603;DHT22;21725;50.836;4.368;2022-07-23T11:15:04;27.00;78.60
35603;DHT22;21725;50.836;4.368;2022-07-23T11:17:31;26.90;79.00
35603;DHT22;21725;50.836;4.368;2022-07-23T11:20:16;27.00;78.90
35603;DHT22;21725;50.836;4.368;2022-07-23T11:25:10;27.40;78.20
35603;DHT22;21725;50.836;4.368;2022-07-23T11:27:40;27.80;77.40
35603;DHT22;21725;50.836;4.368;2022-07-23T11:32:53;28.20;76.40
35603;DHT22;21725;50.836;4.368;2022-07-23T11:35:22;28.20;76.30
35603;DHT22;21725;50.836;4.368;2022-07-23T11:37:52;28.00;76.50
35603;DHT22;21725;50.836;4.368;2022-07-23T11:40:24;28.30;75.80
35603;DHT22;21725;50.836;4.368;2022-07-23T11:43:02;28.40;75.40
35603;DHT22;21725;50.836;4.368;2022-07-23T11:45:53;28.60;75.10
35603;DHT22;21725;50.836;4.368;2022-07-23T11:48:28;29.00;74.50
35603;DHT22;21725;50.836;4.368;2022-07-23T11:50:58;28.80;74.70
35603;DHT22;21725;50.836;4.368;2022-07-23T11:53:33;28.80;74.60
35603;DHT22;21725;50.836;4.368;2022-07-23T11:56:06;28.70;73.80
35603;DHT22;21725;50.836;4.368;2022-07-23T11:58:34;28.40;74.60
35603;DHT22;21725;50.836;4.368;2022-07-23T12:01:00;28.60;74.30
35603;DHT22;21725;50.836;4.368;2022-07-23T12:03:26;28.60;74.10
35603;DHT22;21725;50.836;4.368;2022-07-23T12:05:59;28.70;73.80
35603;DHT22;21725;50.836;4.368;2022-07-23T12:08:26;28.70;74.00
35603;DHT22;21725;50.836;4.368;2022-07-23T12:10:54;28.90;74.10
35603;DHT22;21725;50.836;4.368;2022-07-23T12:13:21;29.20;73.30
35603;DHT22;21725;50.836;4.368;2022-07-23T12:15:52;29.30;73.10
35603;DHT22;21725;50.836;4.368;2022-07-23T12:18:21;29.50;72.70
35603;DHT22;21725;50.836;4.368;2022-07-23T12:20:50;29.40;72.70
35603;DHT22;21725;50.836;4.368;2022-07-23T12:23:24;29.20;73.10
35603;DHT22;21725;50.836;4.368;2022-07-23T12:25:51;29.50;72.40
35603;DHT22;21725;50.836;4.368;2022-07-23T12:28:38;29.70;72.00
35603;DHT22;21725;50.836;4.368;2022-07-23T12:31:12;29.90;71.70
35603;DHT22;21725;50.836;4.368;2022-07-23T12:33:39;29.80;71.50
35603;DHT22;21725;50.836;4.368;2022-07-23T12:36:07;29.50;71.90
35603;DHT22;21725;50.836;4.368;2022-07-23T12:38:47;29.60;72.10
35603;DHT22;21725;50.836;4.368;2022-07-23T12:41:17;29.50;72.50
35603;DHT22;21725;50.836;4.368;2022-07-23T12:43:45;29.60;72.40
35603;DHT22;21725;50.836;4.368;2022-07-23T12:46:13;29.40;72.30
35603;DHT22;21725;50.836;4.368;2022-07-23T12:51:25;29.10;73.20
35603;DHT22;21725;50.836;4.368;2022-07-23T12:54:03;29.10;73.00
35603;DHT22;21725;50.836;4.368;2022-07-23T12:56:30;29.10;72.80
35603;DHT22;21725;50.836;4.368;2022-07-23T13:01:44;29.60;72.00
35603;DHT22;21725;50.836;4.368;2022-07-23T13:04:21;30.00;71.10
35603;DHT22;21725;50.836;4.368;2022-07-23T13:07:00;29.90;71.20
35603;DHT22;21725;50.836;4.368;2022-07-23T13:09:30;29.70;71.30
35603;DHT22;21725;50.836;4.368;2022-07-23T13:11:57;29.40;72.00
35603;DHT22;21725;50.836;4.368;2022-07-23T13:14:24;29.20;72.00
35603;DHT22;21725;50.836;4.368;2022-07-23T13:16:52;29.10;72.10
35603;DHT22;21725;50.836;4.368;2022-07-23T13:19:23;29.10;72.40
35603;DHT22;21725;50.836;4.368;2022-07-23T13:21:49;29.50;71.70
35603;DHT22;21725;50.836;4.368;2022-07-23T13:24:15;29.60;71.40
35603;DHT22;21725;50.836;4.368;2022-07-23T13:26:41;29.80;71.30
35603;DHT22;21725;50.836;4.368;2022-07-23T13:29:08;29.70;70.70
35603;DHT22;21725;50.836;4.368;2022-07-23T13:31:36;29.50;71.30
35603;DHT22;21725;50.836;4.368;2022-07-23T13:34:02;29.70;71.20
35603;DHT22;21725;50.836;4.368;2022-07-23T13:36:28;29.80;71.00
35603;DHT22;21725;50.836;4.368;2022-07-23T13:38:55;29.70;71.10
35603;DHT22;21725;50.836;4.368;2022-07-23T13:41:21;29.50;71.50
35603;DHT22;21725;50.836;4.368;2022-07-23T13:43:47;29.80;71.30
35603;DHT22;21725;50.836;4.368;2022-07-23T13:46:13;29.90;70.70
35603;DHT22;21725;50.836;4.368;2022-07-23T13:48:39;29.60;70.90
35603;DHT22;21725;50.836;4.368;2022-07-23T13:51:07;29.60;71.10
35603;DHT22;21725;50.836;4.368;2022-07-23T13:53:33;30.00;70.80
35603;DHT22;21725;50.836;4.368;2022-07-23T13:55:58;30.00;70.20
35603;DHT22;21725;50.836;4.368;2022-07-23T13:58:24;29.60;70.60
35603;DHT22;21725;50.836;4.368;2022-07-23T14:00:52;29.30;71.40
35603;DHT22;21725;50.836;4.368;2022-07-23T14:03:18;29.20;71.60
35603;DHT22;21725;50.836;4.368;2022-07-23T14:05:44;28.90;72.10
35603;DHT22;21725;50.836;4.368;2022-07-23T14:08:10;28.90;72.60
35603;DHT22;21725;50.836;4.368;2022-07-23T14:10:42;29.10;72.50
35603;DHT22;21725;50.836;4.368;2022-07-23T14:13:07;29.20;71.90
35603;DHT22;21725;50.836;4.368;2022-07-23T14:15:33;29.20;72.20
35603;DHT22;21725;50.836;4.368;2022-07-23T14:18:02;29.20;72.30
35603;DHT22;21725;50.836;4.368;2022-07-23T14:20:28;29.40;71.80
35603;DHT22;21725;50.836;4.368;2022-07-23T14:22:57;29.60;71.80
35603;DHT22;21725;50.836;4.368;2022-07-23T14:25:25;29.60;71.90
35603;DHT22;21725;50.836;4.368;2022-07-23T14:27:52;29.60;71.80
35603;DHT22;21725;50.836;4.368;2022-07-23T14:30:21;29.80;71.50
35603;DHT22;21725;50.836;4.368;2022-07-23T14:32:48;30.30;70.50
35603;DHT22;21725;50.836;4.368;2022-07-23T14:35:16;30.40;70.60
35603;DHT22;21725;50.836;4.368;2022-07-23T14:37:42;30.60;70.10
35603;DHT22;21725;50.836;4.368;2022-07-23T14:40:07;30.40;70.10
35603;DHT22;21725;50.836;4.368;2022-07-23T14:42:36;30.30;70.30
35603;DHT22;21725;50.836;4.368;2022-07-23T14:45:03;30.00;70.90
35603;DHT22;21725;50.836;4.368;2022-07-23T14:47:30;29.70;71.40
35603;DHT22;21725;50.836;4.368;2022-07-23T14:49:56;29.90;70.90
35603;DHT22;21725;50.836;4.368;2022-07-23T14:52:23;29.80;70.60
35603;DHT22;21725;50.836;4.368;2022-07-23T14:54:49;29.60;70.90
35603;DHT22;21725;50.836;4.368;2022-07-23T14:57:20;29.60;71.50
35603;DHT22;21725;50.836;4.368;2022-07-23T14:59:46;30.10;70.80
35603;DHT22;21725;50.836;4.368;2022-07-23T15:02:11;30.00;70.70
35603;DHT22;21725;50.836;4.368;2022-07-23T15:04:37;29.90;70.70
35603;DHT22;21725;50.836;4.368;2022-07-23T15:07:03;29.70;71.10
35603;DHT22;21725;50.836;4.368;2022-07-23T15:09:29;29.50;71.30
35603;DHT22;21725;50.836;4.368;2022-07-23T15:11:54;29.30;71.70
35603;DHT22;21725;50.836;4.368;2022-07-23T15:14:20;29.30;72.20
35603;DHT22;21725;50.836;4.368;2022-07-23T15:16:47;29.70;71.50
35603;DHT22;21725;50.836;4.368;2022-07-23T15:19:13;30.00;70.80
35603;DHT22;21725;50.836;4.368;2022-07-23T15:21:38;30.00;71.10
35603;DHT22;21725;50.836;4.368;2022-07-23T15:24:04;30.10;71.00
35603;DHT22;21725;50.836;4.368;2022-07-23T15:26:30;30.50;70.20
35603;DHT22;21725;50.836;4.368;2022-07-23T15:28:57;30.60;69.50
35603;DHT22;21725;50.836;4.368;2022-07-23T15:31:24;30.50;69.40
35603;DHT22;21725;50.836;4.368;2022-07-23T15:33:50;30.10;70.00
35603;DHT22;21725;50.836;4.368;2022-07-23T15:36:20;29.70;70.30
35603;DHT22;21725;50.836;4.368;2022-07-23T15:38:46;29.50;70.90
35603;DHT22;21725;50.836;4.368;2022-07-23T15:41:12;29.50;71.10
35603;DHT22;21725;50.836;4.368;2022-07-23T15:43:38;29.70;71.10
35603;DHT22;21725;50.836;4.368;2022-07-23T15:46:04;29.90;71.20
35603;DHT22;21725;50.836;4.368;2022-07-23T15:48:31;30.20;70.60
35603;DHT22;21725;50.836;4.368;2022-07-23T15:50:57;30.30;70.20
35603;DHT22;21725;50.836;4.368;2022-07-23T15:53:22;30.10;70.80
35603;DHT22;21725;50.836;4.368;2022-07-23T15:55:51;30.10;71.10
35603;DHT22;21725;50.836;4.368;2022-07-23T15:58:17;30.30;70.50
35603;DHT22;21725;50.836;4.368;2022-07-23T16:00:44;30.60;69.50
35603;DHT22;21725;50.836;4.368;2022-07-23T16:03:15;30.60;69.10
35603;DHT22;21725;50.836;4.368;2022-07-23T16:28:33;27.30;73.50
35603;DHT22;21725;50.836;4.368;2022-07-23T16:31:04;27.80;74.80
35603;DHT22;21725;50.836;4.368;2022-07-23T16:33:30;28.00;74.40
35603;DHT22;21725;50.836;4.368;2022-07-23T16:35:56;28.40;73.70
35603;DHT22;21725;50.836;4.368;2022-07-23T16:38:21;29.00;72.50
35603;DHT22;21725;50.836;4.368;2022-07-23T16:40:54;29.20;71.70
35603;DHT22;21725;50.836;4.368;2022-07-23T16:43:21;29.20;71.60
35603;DHT22;21725;50.836;4.368;2022-07-23T16:45:47;29.20;71.50
35603;DHT22;21725;50.836;4.368;2022-07-23T16:48:14;29.50;71.60
35603;DHT22;21725;50.836;4.368;2022-07-23T16:50:40;29.60;71.30
35603;DHT22;21725;50.836;4.368;2022-07-23T16:53:06;29.60;71.20
35603;DHT22;21725;50.836;4.368;2022-07-23T16:55:31;29.70;71.00
35603;DHT22;21725;50.836;4.368;2022-07-23T16:57:58;29.70;70.90
35603;DHT22;21725;50.836;4.368;2022-07-23T17:00:24;29.70;70.90
35603;DHT22;21725;50.836;4.368;2022-07-23T17:02:50;29.40;71.50
35603;DHT22;21725;50.836;4.368;2022-07-23T17:05:15;29.30;72.00
35603;DHT22;21725;50.836;4.368;2022-07-23T17:07:50;29.30;71.60
35603;DHT22;21725;50.836;4.368;2022-07-23T17:10:18;29.60;70.70
35603;DHT22;21725;50.836;4.368;2022-07-23T17:12:44;29.80;70.30
35603;DHT22;21725;50.836;4.368;2022-07-23T17:15:10;29.80;70.60
35603;DHT22;21725;50.836;4.368;2022-07-23T17:17:36;29.80;70.80
35603;DHT22;21725;50.836;4.368;2022-07-23T17:20:04;29.80;70.20
35603;DHT22;21725;50.836;4.368;2022-07-23T17:22:30;29.70;70.60